createdAt,value
2022-08-13T00:00:44.595Z,4.13
2022-08-13T00:03:58.829Z,3.38
2022-08-13T00:06:27.591Z,2.28
2022-08-13T00:08:59.485Z,3.95
2022-08-13T00:11:59.994Z,2.72
2022-08-13T00:14:35.429Z,2.58
2022-08-13T00:17:11.300Z,8.05
2022-08-13T00:22:29.789Z,2.97
2022-08-13T00:24:59.886Z,2.47
2022-08-13T00:27:41.791Z,3.20
2022-08-13T00:30:26.350Z,4.78
2022-08-13T00:32:58.743Z,3.35
2022-08-13T00:35:39.769Z,7.03
2022-08-13T00:38:17.088Z,2.42
2022-08-13T00:40:56.412Z,2.08
2022-08-13T00:43:26.879Z,2.70
2022-08-13T00:45:56.124Z,3.53
2022-08-13T00:48:46.062Z,4.82
2022-08-13T00:51:57.312Z,4.10
2022-08-13T00:54:17.423Z,3.50
2022-08-13T00:56:46.495Z,2.13
2022-08-13T00:59:15.983Z,3.80
2022-08-13T01:01:48.390Z,4.40
2022-08-13T01:04:27.106Z,1.90
2022-08-13T01:06:59.887Z,3.63
2022-08-13T01:10:18.229Z,4.63
2022-08-13T01:12:25.254Z,1.92
2022-08-13T01:14:58.731Z,1.10
2022-08-13T01:17:44.331Z,1.75
2022-08-13T01:20:32.520Z,1.42
2022-08-13T01:23:03.601Z,1.35
2022-08-13T01:25:53.873Z,2.25
2022-08-13T01:28:21.591Z,2.15
2022-08-13T01:30:53.648Z,1.90
2022-08-13T01:33:22.162Z,2.35
2022-08-13T01:35:53.707Z,2.50
2022-08-13T01:38:27.901Z,2.58
2022-08-13T01:40:57.737Z,2.20
2022-08-13T01:46:03.226Z,2.65
2022-08-13T01:48:58.926Z,1.00
2022-08-13T01:51:43.345Z,3.40
2022-08-13T01:54:38.844Z,1.33
2022-08-13T01:57:06.487Z,1.52
2022-08-13T02:00:01.215Z,3.28
2022-08-13T02:02:34.507Z,1.55
2022-08-13T02:06:19.815Z,2.67
2022-08-13T02:08:07.262Z,1.67
2022-08-13T02:10:45.259Z,5.55
2022-08-13T02:13:16.895Z,1.75
2022-08-13T02:15:51.381Z,1.85
2022-08-13T02:18:25.153Z,1.73
2022-08-13T02:20:57.955Z,3.25
2022-08-13T02:23:53.279Z,2.35
2022-08-13T02:26:20.473Z,2.05
2022-08-13T02:28:55.917Z,2.38
2022-08-13T02:32:04.491Z,2.10
2022-08-13T02:34:16.753Z,1.50
2022-08-13T02:37:01.148Z,2.33
2022-08-13T02:39:42.688Z,2.65
2022-08-13T02:44:51.431Z,2.10
2022-08-13T02:47:33.727Z,1.88
2022-08-13T02:50:11.218Z,1.73
2022-08-13T02:52:49.825Z,1.27
2022-08-13T02:55:34.058Z,1.65
2022-08-13T02:58:04.497Z,2.03
2022-08-13T03:00:34.909Z,2.55
2022-08-13T03:03:10.673Z,4.35
2022-08-13T03:05:43.118Z,2.47
2022-08-13T03:08:39.203Z,1.55
2022-08-13T03:11:13.983Z,2.00
2022-08-13T03:13:46.464Z,2.55
2022-08-13T03:16:20.096Z,3.17
2022-08-13T03:18:53.003Z,1.42
2022-08-13T03:21:43.102Z,2.47
2022-08-13T03:24:22.494Z,2.83
2022-08-13T03:27:02.736Z,4.53
2022-08-13T03:30:03.028Z,2.33
2022-08-13T03:32:41.238Z,3.58
2022-08-13T03:35:16.142Z,1.40
2022-08-13T03:38:03.179Z,1.58
2022-08-13T03:40:53.161Z,1.65
2022-08-13T03:43:23.735Z,1.17
2022-08-13T03:45:52.607Z,1.55
2022-08-13T03:48:26.507Z,1.13
2022-08-13T03:50:55.863Z,1.42
2022-08-13T03:53:43.334Z,1.58
2022-08-13T03:56:14.031Z,1.38
2022-08-13T03:58:46.065Z,2.13
2022-08-13T04:01:19.575Z,1.40
2022-08-13T04:03:48.349Z,1.27
2022-08-13T04:06:25.125Z,1.92
2022-08-13T04:08:55.862Z,1.88
2022-08-13T04:11:28.254Z,1.40
2022-08-13T04:16:33.441Z,1.00
2022-08-13T04:19:04.755Z,1.20
2022-08-13T04:21:34.726Z,1.58
2022-08-13T04:24:06.303Z,2.03
2022-08-13T04:26:40.302Z,1.52
2022-08-13T04:31:51.046Z,1.25
2022-08-13T04:34:32.156Z,1.10
2022-08-13T04:37:17.267Z,1.10
2022-08-13T04:40:03.154Z,3.10
2022-08-13T04:42:55.850Z,2.05
2022-08-13T04:45:26.601Z,2.03
2022-08-13T04:48:01.614Z,2.72
2022-08-13T04:50:33.040Z,1.80
2022-08-13T04:53:26.772Z,2.50
2022-08-13T04:56:08.613Z,1.60
2022-08-13T04:58:41.902Z,1.95
2022-08-13T05:01:48.625Z,1.70
2022-08-13T05:04:12.213Z,1.73
2022-08-13T05:06:50.904Z,1.67
2022-08-13T05:09:26.974Z,2.60
2022-08-13T05:12:05.055Z,2.17
2022-08-13T05:17:04.971Z,2.05
2022-08-13T05:19:38.982Z,1.63
2022-08-13T05:22:14.008Z,1.50
2022-08-13T05:26:18.433Z,1.60
2022-08-13T05:27:45.196Z,1.77
2022-08-13T05:30:29.688Z,3.03
2022-08-13T05:33:01.075Z,1.83
2022-08-13T05:38:12.386Z,1.40
2022-08-13T05:38:31.737Z,2.25
2022-08-13T05:41:03.132Z,1.77
2022-08-13T05:43:35.143Z,1.10
2022-08-13T05:46:09.511Z,2.00
2022-08-13T05:48:39.812Z,2.63
2022-08-13T05:51:14.502Z,1.85
2022-08-13T05:56:09.248Z,1.98
2022-08-13T05:56:38.377Z,1.27
2022-08-13T05:59:08.930Z,1.85
2022-08-13T06:02:02.554Z,1.80
2022-08-13T06:04:37.243Z,1.38
2022-08-13T06:07:10.994Z,2.15
2022-08-13T06:09:39.384Z,1.70
2022-08-13T06:12:30.430Z,1.52
2022-08-13T06:14:58.886Z,2.50
2022-08-13T06:17:29.644Z,1.45
2022-08-13T06:20:01.240Z,1.33
2022-08-13T06:22:30.154Z,2.33
2022-08-13T06:24:58.349Z,3.70
2022-08-13T06:27:56.419Z,1.30
2022-08-13T06:30:51.149Z,1.88
2022-08-13T06:34:06.257Z,1.80
2022-08-13T06:36:19.031Z,1.58
2022-08-13T06:38:52.236Z,1.90
2022-08-13T06:41:22.814Z,1.98
2022-08-13T06:44:01.852Z,4.22
2022-08-13T06:46:32.160Z,1.52
2022-08-13T06:49:02.309Z,1.40
2022-08-13T06:51:37.012Z,1.85
2022-08-13T06:54:23.552Z,1.60
2022-08-13T06:57:07.496Z,2.58
2022-08-13T07:00:04.793Z,2.70
2022-08-13T07:02:34.156Z,3.53
2022-08-13T07:05:02.587Z,2.38
2022-08-13T07:07:45.929Z,3.87
2022-08-13T07:10:17.547Z,3.53
2022-08-13T07:12:46.657Z,7.95
2022-08-13T07:15:24.644Z,4.07
2022-08-13T07:18:06.462Z,5.20
2022-08-13T07:20:34.773Z,6.80
2022-08-13T07:24:37.834Z,2.45
2022-08-13T07:25:59.119Z,2.20
2022-08-13T07:28:46.320Z,2.55
2022-08-13T07:31:22.668Z,5.70
2022-08-13T07:34:00.176Z,5.03
2022-08-13T07:36:31.871Z,6.30
2022-08-13T07:39:10.748Z,3.08
2022-08-13T07:42:01.368Z,3.45
2022-08-13T07:44:40.058Z,4.00
2022-08-13T07:47:24.332Z,3.13
2022-08-13T07:49:57.969Z,3.08
2022-08-13T07:52:30.851Z,5.00
2022-08-13T07:55:00.336Z,4.85
2022-08-13T07:57:38.125Z,4.22
2022-08-13T08:00:22.655Z,3.45
2022-08-13T08:02:59.162Z,2.45
2022-08-13T08:05:39.339Z,6.32
2022-08-13T08:08:10.911Z,4.90
2022-08-13T08:10:42.051Z,4.10
2022-08-13T08:13:11.695Z,4.25
2022-08-13T08:16:01.982Z,5.10
2022-08-13T08:19:25.251Z,5.03
2022-08-13T08:21:47.756Z,3.38
2022-08-13T08:24:29.507Z,3.20
2022-08-13T08:27:02.099Z,6.20
2022-08-13T08:29:33.846Z,6.32
2022-08-13T08:32:10.131Z,5.63
2022-08-13T08:34:45.887Z,4.38
2022-08-13T08:37:58.433Z,5.40
2022-08-13T08:40:57.335Z,5.00
2022-08-13T08:43:47.485Z,8.07
2022-08-13T08:46:17.849Z,6.28
2022-08-13T08:48:55.343Z,6.53
2022-08-13T08:51:25.164Z,5.90
2022-08-13T08:54:06.503Z,4.50
2022-08-13T08:56:57.919Z,3.58
2022-08-13T09:01:59.664Z,4.03
2022-08-13T09:04:38.120Z,3.75
2022-08-13T09:07:22.123Z,7.47
2022-08-13T09:10:03.206Z,5.47
2022-08-13T09:12:33.746Z,2.85
2022-08-13T09:15:01.482Z,3.88
2022-08-13T09:17:43.454Z,4.80
2022-08-13T09:20:17.167Z,10.38
2022-08-13T09:22:54.578Z,4.90
2022-08-13T09:25:26.141Z,8.27
2022-08-13T09:28:11.155Z,8.52
2022-08-13T09:30:43.018Z,5.97
2022-08-13T09:33:43.334Z,9.23
2022-08-13T09:36:02.281Z,5.55
2022-08-13T09:38:31.973Z,7.40
2022-08-13T09:41:20.367Z,6.47
2022-08-13T09:43:50.823Z,4.57
2022-08-13T09:46:28.118Z,4.60
2022-08-13T09:48:59.661Z,5.32
2022-08-13T09:52:02.331Z,5.72
2022-08-13T09:54:28.579Z,9.13
2022-08-13T09:57:00.448Z,6.05
2022-08-13T09:59:32.799Z,5.43
2022-08-13T10:02:16.610Z,6.43
2022-08-13T10:04:47.588Z,3.90
2022-08-13T10:07:20.327Z,10.32
2022-08-13T10:10:26.923Z,5.95
2022-08-13T10:12:40.665Z,7.40
2022-08-13T10:15:22.715Z,4.15
2022-08-13T10:17:55.475Z,8.15
2022-08-13T10:20:35.149Z,7.75
2022-08-13T10:23:07.930Z,7.68
2022-08-13T10:25:46.155Z,3.78
2022-08-13T10:28:30.783Z,4.55
2022-08-13T10:31:48.339Z,4.50
2022-08-13T10:34:00.778Z,7.63
2022-08-13T10:36:33.858Z,6.10
2022-08-13T10:39:12.340Z,6.75
2022-08-13T10:42:00.384Z,5.43
2022-08-13T10:44:32.217Z,7.85
2022-08-13T10:47:03.947Z,6.75
2022-08-13T10:49:33.826Z,4.25
2022-08-13T10:52:05.034Z,4.35
2022-08-13T10:54:37.027Z,6.13
2022-08-13T10:57:10.162Z,6.05
2022-08-13T10:59:44.653Z,7.63
2022-08-13T11:02:19.760Z,5.88
2022-08-13T11:04:50.854Z,4.80
2022-08-13T11:07:21.931Z,7.55
2022-08-13T11:09:51.414Z,7.57
2022-08-13T11:12:22.242Z,5.72
2022-08-13T11:14:52.154Z,4.88
2022-08-13T11:17:51.897Z,8.60
2022-08-13T11:20:18.024Z,8.80
2022-08-13T11:22:52.678Z,7.35
2022-08-13T11:25:55.334Z,7.20
2022-08-13T11:28:19.310Z,6.70
2022-08-13T11:30:55.290Z,6.72
2022-08-13T11:33:41.010Z,6.70
2022-08-13T11:36:15.359Z,7.43
2022-08-13T11:38:44.096Z,8.43
2022-08-13T11:41:16.138Z,8.30
2022-08-13T11:43:51.510Z,6.95
2022-08-13T11:46:26.712Z,9.73
2022-08-13T11:49:10.549Z,11.27
2022-08-13T11:51:49.076Z,9.45
2022-08-13T11:54:32.574Z,9.40
2022-08-13T11:57:03.264Z,8.07
2022-08-13T11:59:34.919Z,13.30
2022-08-13T12:02:15.200Z,9.68
2022-08-13T12:04:49.741Z,8.63
2022-08-13T12:07:26.236Z,8.43
2022-08-13T12:09:57.695Z,6.78
2022-08-13T12:12:29.194Z,8.43
2022-08-13T12:15:02.716Z,5.47
2022-08-13T12:17:49.666Z,6.18
2022-08-13T12:20:29.641Z,5.32
2022-08-13T12:23:00.190Z,9.52
2022-08-13T12:26:00.950Z,6.28
2022-08-13T12:28:27.677Z,7.25
2022-08-13T12:30:58.953Z,8.00
2022-08-13T12:33:30.357Z,6.10
2022-08-13T12:36:16.942Z,8.05
2022-08-13T12:38:59.573Z,7.07
2022-08-13T12:41:38.989Z,8.50
2022-08-13T12:44:59.783Z,8.77
2022-08-13T12:47:03.815Z,6.80
2022-08-13T12:50:00.236Z,7.05
2022-08-13T12:52:22.682Z,5.82
2022-08-13T12:55:09.605Z,10.57
2022-08-13T12:58:03.426Z,8.73
2022-08-13T13:00:33.317Z,5.20
2022-08-13T13:03:06.621Z,11.25
2022-08-13T13:05:40.345Z,9.82
2022-08-13T13:08:35.695Z,5.55
2022-08-13T13:11:14.017Z,7.32
2022-08-13T13:13:53.912Z,5.45
2022-08-13T13:16:35.384Z,5.80
2022-08-13T13:19:15.366Z,9.50
2022-08-13T13:21:46.198Z,7.47
2022-08-13T13:24:18.657Z,6.47
2022-08-13T13:27:01.776Z,5.93
2022-08-13T13:29:36.656Z,6.50
2022-08-13T13:32:39.635Z,7.45
2022-08-13T13:35:10.164Z,5.85
2022-08-13T13:38:06.657Z,7.22
2022-08-13T13:40:44.071Z,6.20
2022-08-13T13:43:23.237Z,7.35
2022-08-13T13:46:08.335Z,6.78
2022-08-13T13:48:41.262Z,6.30
2022-08-13T13:51:12.844Z,11.40
2022-08-13T13:54:09.649Z,7.75
2022-08-13T13:56:33.902Z,8.25
2022-08-13T13:59:01.997Z,7.18
2022-08-13T14:01:50.056Z,8.90
2022-08-13T14:04:23.774Z,7.65
2022-08-13T14:07:02.185Z,8.38
2022-08-13T14:09:30.941Z,7.43
2022-08-13T14:12:03.661Z,5.65
2022-08-13T14:14:31.528Z,7.70
2022-08-13T14:17:01.760Z,6.85
2022-08-13T14:19:53.626Z,9.20
2022-08-13T14:22:18.223Z,5.47
2022-08-13T14:24:50.215Z,6.05
2022-08-13T14:27:20.218Z,6.95
2022-08-13T14:29:53.450Z,5.45
2022-08-13T14:32:28.850Z,5.53
2022-08-13T14:35:06.936Z,7.53
2022-08-13T14:37:51.014Z,6.13
2022-08-13T14:40:31.885Z,7.22
2022-08-13T14:43:16.885Z,8.20
2022-08-13T14:45:57.745Z,5.10
2022-08-13T14:48:28.521Z,5.53
2022-08-13T14:51:17.189Z,9.15
2022-08-13T14:53:56.908Z,6.03
2022-08-13T14:56:30.952Z,5.82
2022-08-13T14:59:03.266Z,5.72
2022-08-13T15:01:33.035Z,6.13
2022-08-13T15:04:07.220Z,6.85
2022-08-13T15:06:36.682Z,5.82
2022-08-13T15:09:11.763Z,5.85
2022-08-13T15:11:51.008Z,8.38
2022-08-13T15:14:21.417Z,7.80
2022-08-13T15:16:50.697Z,5.82
2022-08-13T15:19:19.996Z,5.95
2022-08-13T15:21:50.659Z,5.13
2022-08-13T15:24:36.433Z,6.88
2022-08-13T15:27:12.735Z,6.38
2022-08-13T15:29:49.996Z,6.85
2022-08-13T15:32:18.439Z,5.88
2022-08-13T15:34:57.331Z,5.47
2022-08-13T15:37:29.166Z,6.40
2022-08-13T15:40:21.743Z,6.25
2022-08-13T15:42:50.499Z,7.03
2022-08-13T15:45:19.617Z,9.15
2022-08-13T15:47:50.342Z,9.02
2022-08-13T15:50:19.391Z,8.02
2022-08-13T15:52:48.061Z,5.65
2022-08-13T15:55:19.474Z,5.38
2022-08-13T15:57:49.027Z,7.00
2022-08-13T16:00:23.301Z,8.32
2022-08-13T16:02:56.891Z,6.60
2022-08-13T16:05:29.695Z,5.18
2022-08-13T16:08:08.652Z,8.13
2022-08-13T16:10:37.901Z,7.00
2022-08-13T16:13:11.473Z,6.43
2022-08-13T16:15:51.196Z,7.20
2022-08-13T16:18:36.323Z,6.47
2022-08-13T16:21:05.022Z,7.03
2022-08-13T16:23:57.914Z,4.75
2022-08-13T16:26:28.259Z,6.40
2022-08-13T16:28:58.278Z,5.47
2022-08-13T16:31:38.771Z,6.95
2022-08-13T16:34:10.243Z,5.90
2022-08-13T16:36:38.846Z,6.78
2022-08-13T16:39:08.237Z,6.40
2022-08-13T16:41:37.047Z,7.15
2022-08-13T16:44:37.091Z,7.22
2022-08-13T16:46:59.508Z,5.13
2022-08-13T16:49:27.751Z,7.53
2022-08-13T16:51:57.463Z,5.82
2022-08-13T16:54:39.245Z,5.72
2022-08-13T16:57:08.957Z,9.23
2022-08-13T16:59:43.719Z,7.32
2022-08-13T17:02:15.111Z,8.40
2022-08-13T17:05:16.734Z,7.22
2022-08-13T17:08:15.793Z,7.17
2022-08-13T17:10:46.162Z,6.25
2022-08-13T17:13:14.359Z,8.18
2022-08-13T17:15:43.409Z,6.78
2022-08-13T17:18:11.916Z,9.65
2022-08-13T17:20:40.152Z,7.63
2022-08-13T17:23:09.534Z,7.55
2022-08-13T17:25:43.495Z,5.78
2022-08-13T17:28:30.889Z,4.72
2022-08-13T17:31:02.865Z,6.07
2022-08-13T17:33:54.286Z,5.78
2022-08-13T17:36:32.162Z,5.22
2022-08-13T17:39:10.487Z,6.55
2022-08-13T17:41:54.687Z,8.75
2022-08-13T17:44:28.158Z,6.10
2022-08-13T17:46:59.008Z,6.95
2022-08-13T17:49:29.095Z,5.82
2022-08-13T17:52:02.259Z,7.20
2022-08-13T17:54:30.538Z,7.28
2022-08-13T17:56:59.492Z,5.38
2022-08-13T17:59:48.126Z,5.75
2022-08-13T18:02:15.879Z,10.35
2022-08-13T18:04:44.299Z,4.53
2022-08-13T18:07:20.886Z,6.50
2022-08-13T18:09:54.602Z,10.65
2022-08-13T18:12:33.654Z,5.72
2022-08-13T18:15:13.751Z,5.78
2022-08-13T18:18:37.219Z,6.10
2022-08-13T18:20:50.741Z,5.32
2022-08-13T18:23:19.056Z,9.15
2022-08-13T18:25:47.069Z,11.57
2022-08-13T18:28:20.845Z,11.52
2022-08-13T18:31:01.022Z,7.85
2022-08-13T18:34:04.464Z,6.68
2022-08-13T18:36:19.410Z,6.25
2022-08-13T18:38:50.107Z,8.80
2022-08-13T18:41:24.361Z,7.35
2022-08-13T18:43:54.333Z,6.95
2022-08-13T18:46:29.251Z,10.52
2022-08-13T18:49:00.251Z,4.57
2022-08-13T18:51:39.997Z,6.63
2022-08-13T18:54:36.579Z,8.60
2022-08-13T18:57:02.266Z,5.40
2022-08-13T18:59:30.395Z,6.57
2022-08-13T19:02:10.465Z,6.45
2022-08-13T19:04:44.041Z,4.40
2022-08-13T19:07:38.636Z,6.65
2022-08-13T19:10:06.279Z,6.20
2022-08-13T19:12:37.877Z,5.88
2022-08-13T19:15:12.871Z,6.70
2022-08-13T19:17:55.719Z,8.10
2022-08-13T19:20:33.678Z,7.88
2022-08-13T19:23:07.543Z,9.02
2022-08-13T19:25:54.865Z,8.43
2022-08-13T19:28:37.127Z,6.45
2022-08-13T19:31:18.641Z,6.07
2022-08-13T19:33:48.878Z,7.13
2022-08-13T19:36:20.625Z,4.78
2022-08-13T19:39:01.286Z,5.55
2022-08-13T19:41:35.581Z,6.57
2022-08-13T19:44:06.962Z,9.77
2022-08-13T19:46:49.277Z,6.43
2022-08-13T19:49:22.047Z,5.63
2022-08-13T19:51:49.995Z,6.47
2022-08-13T19:54:21.682Z,3.78
2022-08-13T19:56:50.542Z,6.20
2022-08-13T19:59:19.881Z,8.52
2022-08-13T20:01:51.794Z,7.40
2022-08-13T20:04:20.079Z,6.15
2022-08-13T20:06:51.705Z,8.48
2022-08-13T20:09:22.450Z,8.27
2022-08-13T20:11:50.546Z,6.72
2022-08-13T20:14:20.224Z,6.93
2022-08-13T20:16:52.422Z,6.88
2022-08-13T20:19:59.053Z,3.83
2022-08-13T20:22:10.899Z,6.68
2022-08-13T20:25:46.486Z,8.40
2022-08-13T20:27:48.683Z,6.50
2022-08-13T20:30:36.106Z,8.23
2022-08-13T20:33:06.340Z,6.43
2022-08-13T20:35:34.276Z,5.75
2022-08-13T20:38:02.912Z,7.72
2022-08-13T20:40:35.590Z,6.15
2022-08-13T20:43:12.043Z,5.10
2022-08-13T20:45:53.783Z,7.63
2022-08-13T20:48:30.183Z,8.80
2022-08-13T20:51:03.547Z,7.78
2022-08-13T20:53:37.134Z,6.68
2022-08-13T20:56:11.800Z,11.32
2022-08-13T21:00:43.264Z,8.85
2022-08-13T21:01:31.222Z,9.90
2022-08-13T21:04:01.320Z,9.10
2022-08-13T21:06:31.167Z,6.57
2022-08-13T21:09:02.875Z,12.27
2022-08-13T21:11:47.080Z,11.70
2022-08-13T21:14:29.916Z,13.55
2022-08-13T21:17:00.554Z,14.27
2022-08-13T21:19:39.881Z,12.18
2022-08-13T21:22:18.493Z,6.80
2022-08-13T21:24:54.607Z,6.60
2022-08-13T21:28:35.972Z,10.13
2022-08-13T21:30:15.746Z,7.45
2022-08-13T21:32:56.659Z,6.97
2022-08-13T21:35:25.791Z,11.32
2022-08-13T21:37:55.018Z,12.40
2022-08-13T21:40:23.500Z,10.40
2022-08-13T21:42:54.974Z,12.18
2022-08-13T21:45:24.515Z,10.18
2022-08-13T21:47:54.708Z,8.57
2022-08-13T21:50:32.505Z,8.02
2022-08-13T21:53:27.908Z,7.18
2022-08-13T21:55:55.249Z,12.50
2022-08-13T21:58:27.080Z,6.47
2022-08-13T22:00:57.001Z,7.95
2022-08-13T22:04:00.207Z,7.20
2022-08-13T22:06:19.132Z,12.90
2022-08-13T22:08:47.937Z,8.18
2022-08-13T22:11:16.363Z,10.65
2022-08-13T22:13:44.403Z,7.85
2022-08-13T22:16:13.190Z,11.10
2022-08-13T22:18:46.287Z,13.68
2022-08-13T22:21:17.382Z,9.25
2022-08-13T22:23:46.224Z,7.45
2022-08-13T22:26:15.319Z,11.55
2022-08-13T22:29:03.016Z,14.38
2022-08-13T22:31:31.942Z,7.25
2022-08-13T22:34:02.954Z,6.70
2022-08-13T22:36:34.031Z,6.20
2022-08-13T22:39:05.578Z,4.68
2022-08-13T22:41:40.862Z,6.20
2022-08-13T22:44:11.685Z,7.43
2022-08-13T22:46:43.927Z,8.02
2022-08-13T22:49:13.118Z,4.57
2022-08-13T22:51:45.229Z,5.35
2022-08-13T22:54:20.445Z,5.00
2022-08-13T22:56:48.398Z,5.93
2022-08-13T22:59:16.739Z,5.60
2022-08-13T23:01:47.203Z,4.55
2022-08-13T23:04:21.962Z,8.10
2022-08-13T23:06:52.888Z,5.03
2022-08-13T23:09:27.448Z,6.18
2022-08-13T23:12:00.673Z,5.25
2022-08-13T23:14:30.773Z,4.78
2022-08-13T23:16:59.808Z,5.22
2022-08-13T23:19:29.267Z,6.20
2022-08-13T23:22:02.493Z,7.18
2022-08-13T23:24:30.361Z,6.78
2022-08-13T23:26:58.336Z,5.30
2022-08-13T23:29:26.397Z,7.70
2022-08-13T23:31:58.751Z,7.22
2022-08-13T23:34:28.699Z,8.43
2022-08-13T23:36:57.222Z,7.70
2022-08-13T23:39:26.586Z,7.22
2022-08-13T23:41:56.929Z,5.97
2022-08-13T23:44:39.932Z,5.85
2022-08-13T23:47:13.396Z,5.13
2022-08-13T23:49:45.268Z,6.00
2022-08-13T23:52:17.190Z,6.20
2022-08-13T23:54:50.266Z,6.95
2022-08-13T23:57:27.998Z,8.85
2022-08-13T23:59:57.399Z,7.38
